Time;durP1;ratioP1;P1;durP2;ratioP2;P2;SDS_P1;SDS_P2;PMS_P1;PMS_P2;Temp;Humidity;BMP_temperature;BMP_pressure;BME280_temperature;BME280_humidity;BME280_pressure;Samples;Min_cycle;Max_cycle;Signal;HPM_P1;HPM_P2
2023/10/25 00:36:31;;;;;;;26.03;19.27;;;11.20;99.90;;;;;;5646314;25;20483;-87
2023/10/25 00:56:59;;;;;;;28.23;18.53;;;11.20;99.90;;;;;;6086575;23;20271;-86
2023/10/25 01:21:48;;;;;;;28.90;19.27;;;11.20;99.90;;;;;;5954093;23;20815;-87
2023/10/25 01:42:31;;;;;;;24.33;18.53;;;11.10;99.90;;;;;;5785644;24;20365;-89
2023/10/25 02:07:48;;;;;;;27.23;18.30;;;11.00;99.90;;;;;;5761500;24;20193;-89
2023/10/25 02:22:34;;;;;;;27.20;19.77;;;11.00;99.90;;;;;;6072252;23;20183;31
2023/10/25 02:58:18;;;;;;;29.87;21.70;;;11.10;99.90;;;;;;5883134;24;20493;-87
2023/10/25 03:28:22;;;;;;;28.23;22.03;;;11.10;99.90;;;;;;6081211;23;21249;-89
2023/10/25 04:03:33;;;;;;;23.90;19.80;;;11.20;99.90;;;;;;6023109;23;20191;-88
2023/10/25 05:34:49;;;;;;;32.00;26.00;;;11.20;99.90;;;;;;5746013;24;20259;-87
2023/10/25 05:59:29;;;;;;;29.80;24.20;;;11.20;99.90;;;;;;5769929;24;20201;-89
2023/10/25 06:15:09;;;;;;;28.77;23.53;;;11.20;99.90;;;;;;5803122;24;20564;-89
2023/10/25 06:40:35;;;;;;;23.70;18.73;;;11.30;99.90;;;;;;6024126;23;20203;-88
2023/10/25 07:05:36;;;;;;;24.60;19.13;;;11.40;99.90;;;;;;5669490;25;20196;-90
2023/10/25 07:35:52;;;;;;;17.60;15.37;;;11.40;99.90;;;;;;5611712;24;20459;-80
2023/10/25 08:01:11;;;;;;;14.80;13.30;;;11.50;99.90;;;;;;5605802;24;20408;-84
2023/10/25 08:36:38;;;;;;;14.23;12.73;;;11.60;99.90;;;;;;5955950;23;20242;-83
2023/10/25 09:02:28;;;;;;;12.37;11.07;;;11.70;99.90;;;;;;5656092;24;20551;-84
2023/10/25 09:43:06;;;;;;;10.07;9.07;;;11.90;99.90;;;;;;5924086;23;20431;-84
2023/10/25 10:07:48;;;;;;;10.07;9.10;;;11.90;99.90;;;;;;5700478;24;20729;-83
2023/10/25 11:44:23;;;;;;;8.73;7.83;;;12.00;99.90;;;;;;5615042;24;20182;-81
2023/10/25 12:04:54;;;;;;;7.20;6.50;;;12.10;99.90;;;;;;5814797;24;20666;-85
2023/10/25 13:15:17;;;;;;;5.00;4.60;;;11.40;99.90;;;;;;5583032;24;20219;-81
2023/10/25 13:36:15;;;;;;;5.07;4.57;;;11.40;99.90;;;;;;5744653;24;20603;-81
2023/10/25 14:00:56;;;;;;;7.00;6.30;;;11.10;99.90;;;;;;5643905;24;20779;-84
2023/10/25 14:26:44;;;;;;;5.63;4.47;;;11.00;99.90;;;;;;5662341;24;20239;-82
2023/10/25 15:17:13;;;;;;;8.40;7.50;;;10.70;99.90;;;;;;6087067;23;20190;-85
2023/10/25 15:47:54;;;;;;;11.53;8.53;;;10.50;99.90;;;;;;5875907;23;20173;-86
2023/10/25 16:18:17;;;;;;;11.40;8.93;;;10.60;99.90;;;;;;5953263;23;20687;-88
2023/10/25 16:48:11;;;;;;;11.93;8.93;;;10.50;99.90;;;;;;5667323;25;20205;-91
2023/10/25 17:18:55;;;;;;;17.33;11.03;;;10.40;99.90;;;;;;5819663;24;20310;-89
2023/10/25 18:44:32;;;;;;;15.63;11.67;;;10.40;99.90;;;;;;5919585;24;20363;-88
2023/10/25 19:20:30;;;;;;;19.67;14.07;;;10.40;99.90;;;;;;6138638;23;20161;-87
2023/10/25 19:50:50;;;;;;;20.10;14.10;;;10.50;99.90;;;;;;5852156;24;20260;-87
2023/10/25 21:01:37;;;;;;;32.80;18.13;;;10.40;99.90;;;;;;6092608;23;20234;-86
2023/10/25 21:31:31;;;;;;;30.63;16.93;;;10.30;99.90;;;;;;5801444;24;20633;-85
2023/10/25 21:52:20;;;;;;;25.33;14.97;;;10.40;99.90;;;;;;5769293;24;20421;-86
2023/10/25 22:17:41;;;;;;;24.03;14.60;;;10.40;99.90;;;;;;5663711;24;20223;-87
2023/10/25 22:43:04;;;;;;;28.97;16.23;;;10.30;99.90;;;;;;5660269;24;21129;-84
2023/10/25 23:13:31;;;;;;;35.17;19.00;;;10.40;99.90;;;;;;5859616;23;20197;-88
2023/10/25 23:38:26;;;;;;;50.37;23.60;;;10.50;99.90;;;;;;5804754;24;20519;-87
